sensor_id;sensor_type;location;lat;lon;timestamp;P1;durP1;ratioP1;P2;durP2;ratioP2
78561;SDS011;68963;52.138;5.446;2023-05-16T00:01:18;10.75;;;1.55;;
78561;SDS011;68963;52.138;5.446;2023-05-16T00:03:45;10.98;;;1.60;;
78561;SDS011;68963;52.138;5.446;2023-05-16T00:06:11;8.80;;;1.20;;
78561;SDS011;68963;52.138;5.446;2023-05-16T00:08:38;7.22;;;1.48;;
78561;SDS011;68963;52.138;5.446;2023-05-16T00:11:05;8.80;;;1.40;;
78561;SDS011;68963;52.138;5.446;2023-05-16T00:13:31;9.18;;;1.10;;
78561;SDS011;68963;52.138;5.446;2023-05-16T00:15:58;10.48;;;1.52;;
78561;SDS011;68963;52.138;5.446;2023-05-16T00:18:27;8.25;;;1.13;;
78561;SDS011;68963;52.138;5.446;2023-05-16T00:20:54;9.90;;;1.27;;
78561;SDS011;68963;52.138;5.446;2023-05-16T00:23:21;5.78;;;1.02;;
78561;SDS011;68963;52.138;5.446;2023-05-16T00:25:47;8.23;;;1.20;;
78561;SDS011;68963;52.138;5.446;2023-05-16T00:28:14;12.00;;;1.25;;
78561;SDS011;68963;52.138;5.446;2023-05-16T00:30:40;9.45;;;1.52;;
78561;SDS011;68963;52.138;5.446;2023-05-16T00:33:07;8.65;;;1.20;;
78561;SDS011;68963;52.138;5.446;2023-05-16T00:35:34;10.23;;;1.40;;
78561;SDS011;68963;52.138;5.446;2023-05-16T00:38:00;9.68;;;1.30;;
78561;SDS011;68963;52.138;5.446;2023-05-16T00:40:27;12.88;;;1.30;;
78561;SDS011;68963;52.138;5.446;2023-05-16T00:42:54;9.88;;;1.40;;
78561;SDS011;68963;52.138;5.446;2023-05-16T00:45:21;10.13;;;1.40;;
78561;SDS011;68963;52.138;5.446;2023-05-16T00:47:47;11.57;;;1.60;;
78561;SDS011;68963;52.138;5.446;2023-05-16T00:50:14;9.65;;;1.33;;
78561;SDS011;68963;52.138;5.446;2023-05-16T00:52:42;8.35;;;1.50;;
78561;SDS011;68963;52.138;5.446;2023-05-16T00:55:08;10.70;;;1.60;;
78561;SDS011;68963;52.138;5.446;2023-05-16T00:57:36;16.10;;;1.50;;
78561;SDS011;68963;52.138;5.446;2023-05-16T01:00:04;12.00;;;1.50;;
78561;SDS011;68963;52.138;5.446;2023-05-16T01:02:32;10.43;;;1.33;;
78561;SDS011;68963;52.138;5.446;2023-05-16T01:05:00;9.48;;;1.45;;
78561;SDS011;68963;52.138;5.446;2023-05-16T01:07:27;8.32;;;1.08;;
78561;SDS011;68963;52.138;5.446;2023-05-16T01:09:53;6.35;;;1.40;;
78561;SDS011;68963;52.138;5.446;2023-05-16T01:17:52;8.45;;;1.40;;
78561;SDS011;68963;52.138;5.446;2023-05-16T01:26:23;9.52;;;1.30;;
78561;SDS011;68963;52.138;5.446;2023-05-16T01:28:52;9.05;;;1.40;;
78561;SDS011;68963;52.138;5.446;2023-05-16T01:31:20;6.68;;;1.27;;
78561;SDS011;68963;52.138;5.446;2023-05-16T01:33:48;9.32;;;1.27;;
78561;SDS011;68963;52.138;5.446;2023-05-16T01:36:32;10.25;;;1.40;;
78561;SDS011;68963;52.138;5.446;2023-05-16T01:42:08;12.68;;;1.65;;
78561;SDS011;68963;52.138;5.446;2023-05-16T01:47:12;8.68;;;1.60;;
78561;SDS011;68963;52.138;5.446;2023-05-16T01:52:26;11.52;;;1.23;;
78561;SDS011;68963;52.138;5.446;2023-05-16T01:54:56;7.97;;;1.23;;
78561;SDS011;68963;52.138;5.446;2023-05-16T01:57:24;10.15;;;1.33;;
78561;SDS011;68963;52.138;5.446;2023-05-16T01:59:52;7.60;;;1.58;;
78561;SDS011;68963;52.138;5.446;2023-05-16T02:02:19;11.20;;;1.35;;
78561;SDS011;68963;52.138;5.446;2023-05-16T02:04:46;7.72;;;2.05;;
78561;SDS011;68963;52.138;5.446;2023-05-16T02:07:12;7.10;;;1.58;;
78561;SDS011;68963;52.138;5.446;2023-05-16T02:09:40;8.30;;;1.45;;
78561;SDS011;68963;52.138;5.446;2023-05-16T02:12:06;9.82;;;1.60;;
78561;SDS011;68963;52.138;5.446;2023-05-16T02:14:33;6.03;;;1.20;;
78561;SDS011;68963;52.138;5.446;2023-05-16T02:17:00;6.80;;;1.35;;
78561;SDS011;68963;52.138;5.446;2023-05-16T02:19:27;9.32;;;1.45;;
78561;SDS011;68963;52.138;5.446;2023-05-16T02:21:53;7.47;;;1.50;;
78561;SDS011;68963;52.138;5.446;2023-05-16T02:24:20;9.73;;;1.80;;
78561;SDS011;68963;52.138;5.446;2023-05-16T02:26:46;6.53;;;1.25;;
78561;SDS011;68963;52.138;5.446;2023-05-16T02:29:13;8.95;;;1.30;;
78561;SDS011;68963;52.138;5.446;2023-05-16T02:31:41;8.02;;;1.55;;
78561;SDS011;68963;52.138;5.446;2023-05-16T02:34:08;7.50;;;1.55;;
78561;SDS011;68963;52.138;5.446;2023-05-16T02:36:36;7.00;;;1.45;;
78561;SDS011;68963;52.138;5.446;2023-05-16T02:39:02;8.15;;;1.45;;
78561;SDS011;68963;52.138;5.446;2023-05-16T02:41:29;11.02;;;1.63;;
78561;SDS011;68963;52.138;5.446;2023-05-16T02:43:56;9.32;;;1.70;;
78561;SDS011;68963;52.138;5.446;2023-05-16T02:46:24;8.23;;;1.45;;
78561;SDS011;68963;52.138;5.446;2023-05-16T02:48:59;10.52;;;1.88;;
78561;SDS011;68963;52.138;5.446;2023-05-16T02:51:26;7.88;;;1.60;;
78561;SDS011;68963;52.138;5.446;2023-05-16T02:53:54;9.70;;;1.90;;
78561;SDS011;68963;52.138;5.446;2023-05-16T02:56:25;11.02;;;1.85;;
78561;SDS011;68963;52.138;5.446;2023-05-16T02:58:52;10.30;;;1.70;;
78561;SDS011;68963;52.138;5.446;2023-05-16T03:01:19;11.57;;;1.48;;
78561;SDS011;68963;52.138;5.446;2023-05-16T03:03:46;9.80;;;1.70;;
78561;SDS011;68963;52.138;5.446;2023-05-16T03:06:13;10.05;;;1.50;;
78561;SDS011;68963;52.138;5.446;2023-05-16T03:08:39;8.90;;;1.55;;
78561;SDS011;68963;52.138;5.446;2023-05-16T03:11:06;11.27;;;1.88;;
78561;SDS011;68963;52.138;5.446;2023-05-16T03:13:33;5.43;;;1.40;;
78561;SDS011;68963;52.138;5.446;2023-05-16T03:16:00;11.20;;;1.50;;
78561;SDS011;68963;52.138;5.446;2023-05-16T03:18:27;7.22;;;1.65;;
78561;SDS011;68963;52.138;5.446;2023-05-16T03:20:54;10.35;;;1.58;;
78561;SDS011;68963;52.138;5.446;2023-05-16T03:23:20;9.55;;;1.50;;
78561;SDS011;68963;52.138;5.446;2023-05-16T03:25:47;9.82;;;1.70;;
78561;SDS011;68963;52.138;5.446;2023-05-16T03:28:15;8.13;;;1.80;;
78561;SDS011;68963;52.138;5.446;2023-05-16T03:30:42;11.02;;;1.70;;
78561;SDS011;68963;52.138;5.446;2023-05-16T03:33:09;11.05;;;1.77;;
78561;SDS011;68963;52.138;5.446;2023-05-16T03:35:35;11.18;;;1.65;;
78561;SDS011;68963;52.138;5.446;2023-05-16T03:38:02;11.15;;;1.60;;
78561;SDS011;68963;52.138;5.446;2023-05-16T03:40:29;7.47;;;1.77;;
78561;SDS011;68963;52.138;5.446;2023-05-16T03:42:56;10.13;;;1.50;;
78561;SDS011;68963;52.138;5.446;2023-05-16T03:45:22;7.68;;;1.60;;
78561;SDS011;68963;52.138;5.446;2023-05-16T03:47:49;8.00;;;1.48;;
78561;SDS011;68963;52.138;5.446;2023-05-16T03:50:16;8.70;;;1.50;;
78561;SDS011;68963;52.138;5.446;2023-05-16T03:52:43;12.02;;;1.50;;
78561;SDS011;68963;52.138;5.446;2023-05-16T03:55:09;11.55;;;1.55;;
78561;SDS011;68963;52.138;5.446;2023-05-16T03:57:40;7.78;;;1.40;;
78561;SDS011;68963;52.138;5.446;2023-05-16T04:00:10;11.48;;;1.70;;
78561;SDS011;68963;52.138;5.446;2023-05-16T04:02:38;9.02;;;1.52;;
78561;SDS011;68963;52.138;5.446;2023-05-16T04:05:09;10.10;;;1.50;;
78561;SDS011;68963;52.138;5.446;2023-05-16T04:07:37;8.18;;;1.70;;
78561;SDS011;68963;52.138;5.446;2023-05-16T04:10:03;8.32;;;1.95;;
78561;SDS011;68963;52.138;5.446;2023-05-16T04:12:31;7.78;;;1.45;;
78561;SDS011;68963;52.138;5.446;2023-05-16T04:14:58;9.15;;;1.58;;
78561;SDS011;68963;52.138;5.446;2023-05-16T04:17:24;9.15;;;1.85;;
78561;SDS011;68963;52.138;5.446;2023-05-16T04:19:51;7.63;;;1.40;;
78561;SDS011;68963;52.138;5.446;2023-05-16T04:22:19;7.93;;;1.50;;
78561;SDS011;68963;52.138;5.446;2023-05-16T04:24:47;9.32;;;1.58;;
78561;SDS011;68963;52.138;5.446;2023-05-16T04:27:14;9.35;;;1.60;;
78561;SDS011;68963;52.138;5.446;2023-05-16T04:29:40;11.48;;;1.63;;
78561;SDS011;68963;52.138;5.446;2023-05-16T04:32:07;6.25;;;1.40;;
78561;SDS011;68963;52.138;5.446;2023-05-16T04:34:34;10.73;;;1.40;;
78561;SDS011;68963;52.138;5.446;2023-05-16T04:37:05;9.65;;;1.50;;
78561;SDS011;68963;52.138;5.446;2023-05-16T04:39:34;9.68;;;1.48;;
78561;SDS011;68963;52.138;5.446;2023-05-16T04:42:01;8.63;;;1.50;;
78561;SDS011;68963;52.138;5.446;2023-05-16T04:44:29;10.85;;;1.50;;
78561;SDS011;68963;52.138;5.446;2023-05-16T04:46:56;9.82;;;1.60;;
78561;SDS011;68963;52.138;5.446;2023-05-16T04:49:23;11.82;;;1.60;;
78561;SDS011;68963;52.138;5.446;2023-05-16T04:51:49;8.68;;;1.55;;
78561;SDS011;68963;52.138;5.446;2023-05-16T04:54:16;7.07;;;1.23;;
78561;SDS011;68963;52.138;5.446;2023-05-16T04:56:42;7.47;;;1.60;;
78561;SDS011;68963;52.138;5.446;2023-05-16T04:59:09;7.75;;;1.40;;
78561;SDS011;68963;52.138;5.446;2023-05-16T05:01:35;9.00;;;1.55;;
78561;SDS011;68963;52.138;5.446;2023-05-16T05:04:02;9.27;;;1.63;;
78561;SDS011;68963;52.138;5.446;2023-05-16T05:06:29;9.95;;;1.50;;
78561;SDS011;68963;52.138;5.446;2023-05-16T05:08:56;7.75;;;1.60;;
78561;SDS011;68963;52.138;5.446;2023-05-16T05:11:23;7.03;;;1.35;;
78561;SDS011;68963;52.138;5.446;2023-05-16T05:13:49;8.75;;;1.50;;
78561;SDS011;68963;52.138;5.446;2023-05-16T05:18:44;4.88;;;1.27;;
78561;SDS011;68963;52.138;5.446;2023-05-16T05:21:11;7.18;;;1.58;;
78561;SDS011;68963;52.138;5.446;2023-05-16T05:23:38;8.07;;;1.90;;
78561;SDS011;68963;52.138;5.446;2023-05-16T05:26:11;6.85;;;1.52;;
78561;SDS011;68963;52.138;5.446;2023-05-16T05:28:37;7.38;;;1.38;;
78561;SDS011;68963;52.138;5.446;2023-05-16T05:31:05;9.73;;;1.60;;
78561;SDS011;68963;52.138;5.446;2023-05-16T05:33:31;10.20;;;1.48;;
78561;SDS011;68963;52.138;5.446;2023-05-16T05:35:58;7.45;;;1.20;;
78561;SDS011;68963;52.138;5.446;2023-05-16T05:38:28;8.25;;;1.67;;
78561;SDS011;68963;52.138;5.446;2023-05-16T05:40:55;8.32;;;1.33;;
78561;SDS011;68963;52.138;5.446;2023-05-16T05:43:22;5.25;;;1.40;;
78561;SDS011;68963;52.138;5.446;2023-05-16T05:45:48;7.03;;;1.25;;
78561;SDS011;68963;52.138;5.446;2023-05-16T05:48:16;8.05;;;1.45;;
78561;SDS011;68963;52.138;5.446;2023-05-16T05:50:43;12.50;;;1.92;;
78561;SDS011;68963;52.138;5.446;2023-05-16T05:53:10;7.22;;;1.35;;
78561;SDS011;68963;52.138;5.446;2023-05-16T05:55:36;8.38;;;1.40;;
78561;SDS011;68963;52.138;5.446;2023-05-16T05:58:03;7.57;;;1.17;;
78561;SDS011;68963;52.138;5.446;2023-05-16T06:00:32;9.27;;;1.33;;
78561;SDS011;68963;52.138;5.446;2023-05-16T06:02:59;9.77;;;1.25;;
78561;SDS011;68963;52.138;5.446;2023-05-16T06:05:25;5.18;;;1.10;;
78561;SDS011;68963;52.138;5.446;2023-05-16T06:07:52;10.35;;;1.10;;
78561;SDS011;68963;52.138;5.446;2023-05-16T06:10:19;9.80;;;1.27;;
78561;SDS011;68963;52.138;5.446;2023-05-16T06:12:46;7.25;;;1.23;;
78561;SDS011;68963;52.138;5.446;2023-05-16T06:15:13;9.57;;;1.20;;
78561;SDS011;68963;52.138;5.446;2023-05-16T06:17:40;8.25;;;0.90;;
78561;SDS011;68963;52.138;5.446;2023-05-16T06:20:07;7.65;;;1.13;;
78561;SDS011;68963;52.138;5.446;2023-05-16T06:22:34;7.20;;;1.23;;
78561;SDS011;68963;52.138;5.446;2023-05-16T06:25:00;8.15;;;1.05;;
78561;SDS011;68963;52.138;5.446;2023-05-16T06:27:27;8.60;;;1.70;;
78561;SDS011;68963;52.138;5.446;2023-05-16T06:29:54;14.70;;;2.13;;
78561;SDS011;68963;52.138;5.446;2023-05-16T06:32:20;6.07;;;1.05;;
78561;SDS011;68963;52.138;5.446;2023-05-16T06:34:47;5.75;;;0.90;;
78561;SDS011;68963;52.138;5.446;2023-05-16T06:37:14;6.78;;;0.90;;
78561;SDS011;68963;52.138;5.446;2023-05-16T06:39:41;5.78;;;0.90;;
78561;SDS011;68963;52.138;5.446;2023-05-16T06:42:07;7.57;;;1.10;;
78561;SDS011;68963;52.138;5.446;2023-05-16T06:44:34;7.90;;;1.20;;
78561;SDS011;68963;52.138;5.446;2023-05-16T06:47:01;5.43;;;1.00;;
78561;SDS011;68963;52.138;5.446;2023-05-16T06:49:28;6.57;;;1.00;;
78561;SDS011;68963;52.138;5.446;2023-05-16T06:51:54;9.48;;;1.27;;
78561;SDS011;68963;52.138;5.446;2023-05-16T06:54:21;5.22;;;0.82;;
78561;SDS011;68963;52.138;5.446;2023-05-16T06:56:48;4.82;;;1.00;;
78561;SDS011;68963;52.138;5.446;2023-05-16T06:59:14;5.05;;;0.70;;
78561;SDS011;68963;52.138;5.446;2023-05-16T07:01:41;7.97;;;0.90;;
78561;SDS011;68963;52.138;5.446;2023-05-16T07:04:16;7.57;;;1.10;;
78561;SDS011;68963;52.138;5.446;2023-05-16T07:06:43;7.43;;;1.05;;
78561;SDS011;68963;52.138;5.446;2023-05-16T07:09:09;8.45;;;1.10;;
78561;SDS011;68963;52.138;5.446;2023-05-16T07:11:36;4.13;;;0.73;;
78561;SDS011;68963;52.138;5.446;2023-05-16T07:14:03;5.70;;;0.80;;
78561;SDS011;68963;52.138;5.446;2023-05-16T07:16:30;4.63;;;0.82;;
78561;SDS011;68963;52.138;5.446;2023-05-16T07:18:57;4.63;;;0.80;;
78561;SDS011;68963;52.138;5.446;2023-05-16T07:21:23;6.90;;;0.88;;
78561;SDS011;68963;52.138;5.446;2023-05-16T07:23:50;5.13;;;0.60;;
78561;SDS011;68963;52.138;5.446;2023-05-16T07:26:17;6.68;;;0.90;;
78561;SDS011;68963;52.138;5.446;2023-05-16T07:28:44;5.50;;;0.70;;
78561;SDS011;68963;52.138;5.446;2023-05-16T07:31:10;5.25;;;0.70;;
78561;SDS011;68963;52.138;5.446;2023-05-16T07:33:37;4.45;;;0.75;;
78561;SDS011;68963;52.138;5.446;2023-05-16T07:36:04;4.82;;;0.88;;
78561;SDS011;68963;52.138;5.446;2023-05-16T07:38:42;5.07;;;0.80;;
78561;SDS011;68963;52.138;5.446;2023-05-16T07:41:09;4.80;;;1.08;;
78561;SDS011;68963;52.138;5.446;2023-05-16T07:43:35;4.00;;;0.70;;
78561;SDS011;68963;52.138;5.446;2023-05-16T07:46:02;4.25;;;0.90;;
78561;SDS011;68963;52.138;5.446;2023-05-16T07:48:29;6.05;;;0.82;;
78561;SDS011;68963;52.138;5.446;2023-05-16T07:50:56;5.13;;;1.15;;
78561;SDS011;68963;52.138;5.446;2023-05-16T07:53:23;5.10;;;0.90;;
78561;SDS011;68963;52.138;5.446;2023-05-16T07:55:50;4.68;;;0.95;;
78561;SDS011;68963;52.138;5.446;2023-05-16T07:58:16;5.07;;;0.90;;
78561;SDS011;68963;52.138;5.446;2023-05-16T08:00:43;5.45;;;0.80;;
78561;SDS011;68963;52.138;5.446;2023-05-16T08:03:10;5.90;;;0.75;;
78561;SDS011;68963;52.138;5.446;2023-05-16T08:05:37;6.57;;;1.23;;
78561;SDS011;68963;52.138;5.446;2023-05-16T08:08:04;9.02;;;1.05;;
78561;SDS011;68963;52.138;5.446;2023-05-16T08:10:31;4.47;;;0.85;;
78561;SDS011;68963;52.138;5.446;2023-05-16T08:12:58;5.70;;;0.90;;
78561;SDS011;68963;52.138;5.446;2023-05-16T08:15:25;4.97;;;0.93;;
78561;SDS011;68963;52.138;5.446;2023-05-16T08:17:55;4.82;;;0.88;;
78561;SDS011;68963;52.138;5.446;2023-05-16T08:20:24;5.72;;;0.77;;
78561;SDS011;68963;52.138;5.446;2023-05-16T08:22:51;4.50;;;0.90;;
78561;SDS011;68963;52.138;5.446;2023-05-16T08:25:17;5.88;;;1.30;;
78561;SDS011;68963;52.138;5.446;2023-05-16T08:27:44;7.35;;;1.20;;
78561;SDS011;68963;52.138;5.446;2023-05-16T08:30:12;7.97;;;1.25;;
78561;SDS011;68963;52.138;5.446;2023-05-16T08:32:39;7.22;;;1.10;;
78561;SDS011;68963;52.138;5.446;2023-05-16T08:35:06;5.50;;;1.15;;
78561;SDS011;68963;52.138;5.446;2023-05-16T08:37:33;6.68;;;1.10;;
78561;SDS011;68963;52.138;5.446;2023-05-16T08:40:00;6.65;;;1.05;;
78561;SDS011;68963;52.138;5.446;2023-05-16T08:42:27;5.95;;;1.00;;
78561;SDS011;68963;52.138;5.446;2023-05-16T08:44:53;5.65;;;0.80;;
78561;SDS011;68963;52.138;5.446;2023-05-16T08:47:20;4.60;;;0.90;;
78561;SDS011;68963;52.138;5.446;2023-05-16T08:49:50;7.13;;;1.25;;
78561;SDS011;68963;52.138;5.446;2023-05-16T08:52:18;7.38;;;1.23;;
78561;SDS011;68963;52.138;5.446;2023-05-16T08:54:46;8.05;;;1.00;;
78561;SDS011;68963;52.138;5.446;2023-05-16T08:57:34;4.63;;;0.80;;
78561;SDS011;68963;52.138;5.446;2023-05-16T09:00:02;5.07;;;0.70;;
78561;SDS011;68963;52.138;5.446;2023-05-16T09:02:32;6.80;;;1.02;;
78561;SDS011;68963;52.138;5.446;2023-05-16T09:04:59;5.53;;;1.02;;
78561;SDS011;68963;52.138;5.446;2023-05-16T09:07:28;7.65;;;1.00;;
78561;SDS011;68963;52.138;5.446;2023-05-16T09:09:54;6.72;;;0.90;;
78561;SDS011;68963;52.138;5.446;2023-05-16T09:12:21;4.78;;;0.80;;
78561;SDS011;68963;52.138;5.446;2023-05-16T09:14:48;4.65;;;1.00;;
78561;SDS011;68963;52.138;5.446;2023-05-16T09:17:15;7.88;;;1.00;;
78561;SDS011;68963;52.138;5.446;2023-05-16T09:19:48;5.47;;;1.02;;
78561;SDS011;68963;52.138;5.446;2023-05-16T09:22:18;8.60;;;1.05;;
78561;SDS011;68963;52.138;5.446;2023-05-16T09:24:45;5.85;;;0.80;;
78561;SDS011;68963;52.138;5.446;2023-05-16T09:27:12;3.30;;;0.80;;
78561;SDS011;68963;52.138;5.446;2023-05-16T09:29:41;6.53;;;0.85;;
78561;SDS011;68963;52.138;5.446;2023-05-16T09:32:12;3.20;;;0.52;;
78561;SDS011;68963;52.138;5.446;2023-05-16T09:34:44;5.03;;;0.70;;
78561;SDS011;68963;52.138;5.446;2023-05-16T09:37:16;4.55;;;0.77;;
78561;SDS011;68963;52.138;5.446;2023-05-16T09:39:47;4.43;;;0.60;;
78561;SDS011;68963;52.138;5.446;2023-05-16T09:42:17;2.92;;;0.50;;
78561;SDS011;68963;52.138;5.446;2023-05-16T09:44:45;6.32;;;1.13;;
78561;SDS011;68963;52.138;5.446;2023-05-16T09:47:14;5.35;;;0.82;;
78561;SDS011;68963;52.138;5.446;2023-05-16T09:49:44;5.03;;;0.75;;
78561;SDS011;68963;52.138;5.446;2023-05-16T09:52:13;4.68;;;0.75;;
78561;SDS011;68963;52.138;5.446;2023-05-16T09:54:40;5.40;;;0.70;;
78561;SDS011;68963;52.138;5.446;2023-05-16T09:57:07;4.45;;;0.77;;
78561;SDS011;68963;52.138;5.446;2023-05-16T09:59:34;5.38;;;0.60;;
78561;SDS011;68963;52.138;5.446;2023-05-16T10:02:02;5.13;;;0.60;;
78561;SDS011;68963;52.138;5.446;2023-05-16T10:04:31;4.90;;;0.90;;
78561;SDS011;68963;52.138;5.446;2023-05-16T10:07:00;3.55;;;0.70;;
78561;SDS011;68963;52.138;5.446;2023-05-16T10:09:31;5.90;;;0.80;;
78561;SDS011;68963;52.138;5.446;2023-05-16T10:12:03;3.40;;;0.70;;
78561;SDS011;68963;52.138;5.446;2023-05-16T10:17:02;6.60;;;0.93;;
78561;SDS011;68963;52.138;5.446;2023-05-16T10:19:31;6.25;;;1.23;;
78561;SDS011;68963;52.138;5.446;2023-05-16T10:22:03;5.05;;;0.60;;
78561;SDS011;68963;52.138;5.446;2023-05-16T10:24:47;4.88;;;0.82;;
78561;SDS011;68963;52.138;5.446;2023-05-16T10:27:23;4.57;;;0.70;;
78561;SDS011;68963;52.138;5.446;2023-05-16T10:29:51;4.30;;;0.63;;
78561;SDS011;68963;52.138;5.446;2023-05-16T10:32:21;5.22;;;0.85;;
78561;SDS011;68963;52.138;5.446;2023-05-16T10:34:49;4.60;;;0.73;;
78561;SDS011;68963;52.138;5.446;2023-05-16T10:37:17;6.82;;;0.90;;
78561;SDS011;68963;52.138;5.446;2023-05-16T10:39:43;5.65;;;0.60;;
78561;SDS011;68963;52.138;5.446;2023-05-16T10:42:11;4.38;;;0.63;;
78561;SDS011;68963;52.138;5.446;2023-05-16T10:44:43;7.05;;;0.90;;
78561;SDS011;68963;52.138;5.446;2023-05-16T10:47:23;4.35;;;0.75;;
78561;SDS011;68963;52.138;5.446;2023-05-16T10:49:50;10.73;;;1.00;;
78561;SDS011;68963;52.138;5.446;2023-05-16T10:52:16;4.32;;;0.75;;
78561;SDS011;68963;52.138;5.446;2023-05-16T10:54:47;6.53;;;1.17;;
78561;SDS011;68963;52.138;5.446;2023-05-16T10:57:22;4.43;;;0.70;;
78561;SDS011;68963;52.138;5.446;2023-05-16T10:59:50;6.15;;;0.85;;
78561;SDS011;68963;52.138;5.446;2023-05-16T11:02:25;5.93;;;0.80;;
78561;SDS011;68963;52.138;5.446;2023-05-16T11:04:55;4.93;;;0.80;;
78561;SDS011;68963;52.138;5.446;2023-05-16T11:07:25;4.65;;;0.77;;
78561;SDS011;68963;52.138;5.446;2023-05-16T11:10:07;4.75;;;0.70;;
78561;SDS011;68963;52.138;5.446;2023-05-16T11:15:18;6.38;;;0.90;;
78561;SDS011;68963;52.138;5.446;2023-05-16T11:17:50;3.47;;;0.63;;
78561;SDS011;68963;52.138;5.446;2023-05-16T11:20:37;4.88;;;0.70;;
78561;SDS011;68963;52.138;5.446;2023-05-16T11:25:44;4.38;;;0.75;;
78561;SDS011;68963;52.138;5.446;2023-05-16T11:28:11;3.22;;;0.55;;
78561;SDS011;68963;52.138;5.446;2023-05-16T11:30:42;3.97;;;0.60;;
78561;SDS011;68963;52.138;5.446;2023-05-16T11:33:17;5.18;;;0.80;;
78561;SDS011;68963;52.138;5.446;2023-05-16T11:36:00;5.57;;;0.85;;
78561;SDS011;68963;52.138;5.446;2023-05-16T11:38:41;4.90;;;0.80;;
78561;SDS011;68963;52.138;5.446;2023-05-16T11:43:36;4.70;;;0.75;;
78561;SDS011;68963;52.138;5.446;2023-05-16T11:46:04;5.35;;;0.70;;
78561;SDS011;68963;52.138;5.446;2023-05-16T11:48:31;3.15;;;0.60;;
78561;SDS011;68963;52.138;5.446;2023-05-16T11:51:02;6.38;;;0.80;;
78561;SDS011;68963;52.138;5.446;2023-05-16T11:53:29;4.53;;;0.70;;
78561;SDS011;68963;52.138;5.446;2023-05-16T11:55:55;5.22;;;0.70;;
78561;SDS011;68963;52.138;5.446;2023-05-16T11:58:25;6.35;;;0.75;;
78561;SDS011;68963;52.138;5.446;2023-05-16T12:00:52;6.80;;;0.93;;
78561;SDS011;68963;52.138;5.446;2023-05-16T12:03:19;7.10;;;0.80;;
78561;SDS011;68963;52.138;5.446;2023-05-16T12:05:49;4.13;;;1.00;;
78561;SDS011;68963;52.138;5.446;2023-05-16T12:08:19;4.60;;;0.80;;
78561;SDS011;68963;52.138;5.446;2023-05-16T12:10:50;6.57;;;0.88;;
78561;SDS011;68963;52.138;5.446;2023-05-16T12:13:18;4.55;;;0.73;;
78561;SDS011;68963;52.138;5.446;2023-05-16T12:15:47;6.70;;;0.75;;
78561;SDS011;68963;52.138;5.446;2023-05-16T12:18:16;6.15;;;0.68;;
78561;SDS011;68963;52.138;5.446;2023-05-16T12:20:45;6.00;;;0.75;;
78561;SDS011;68963;52.138;5.446;2023-05-16T12:23:12;5.05;;;0.75;;
78561;SDS011;68963;52.138;5.446;2023-05-16T12:25:43;5.03;;;0.70;;
78561;SDS011;68963;52.138;5.446;2023-05-16T12:28:12;4.20;;;0.70;;
78561;SDS011;68963;52.138;5.446;2023-05-16T12:30:40;7.03;;;0.88;;
78561;SDS011;68963;52.138;5.446;2023-05-16T12:33:12;5.30;;;0.90;;
78561;SDS011;68963;52.138;5.446;2023-05-16T12:35:41;5.57;;;1.00;;
78561;SDS011;68963;52.138;5.446;2023-05-16T12:38:10;4.20;;;1.02;;
78561;SDS011;68963;52.138;5.446;2023-05-16T12:40:40;6.00;;;1.00;;
78561;SDS011;68963;52.138;5.446;2023-05-16T12:45:40;3.83;;;0.73;;
78561;SDS011;68963;52.138;5.446;2023-05-16T12:48:11;7.72;;;0.90;;
78561;SDS011;68963;52.138;5.446;2023-05-16T12:50:39;5.93;;;0.90;;
78561;SDS011;68963;52.138;5.446;2023-05-16T12:53:10;6.72;;;1.23;;
78561;SDS011;68963;52.138;5.446;2023-05-16T12:55:39;6.65;;;0.90;;
78561;SDS011;68963;52.138;5.446;2023-05-16T12:58:05;9.30;;;1.00;;
78561;SDS011;68963;52.138;5.446;2023-05-16T13:00:33;4.65;;;0.85;;
78561;SDS011;68963;52.138;5.446;2023-05-16T13:03:01;7.95;;;1.00;;
78561;SDS011;68963;52.138;5.446;2023-05-16T13:05:28;6.85;;;1.08;;
78561;SDS011;68963;52.138;5.446;2023-05-16T13:07:55;3.85;;;0.98;;
78561;SDS011;68963;52.138;5.446;2023-05-16T13:10:22;5.72;;;0.82;;
78561;SDS011;68963;52.138;5.446;2023-05-16T13:12:48;5.10;;;1.20;;
78561;SDS011;68963;52.138;5.446;2023-05-16T13:15:15;4.97;;;0.80;;
78561;SDS011;68963;52.138;5.446;2023-05-16T13:17:42;9.38;;;1.15;;
78561;SDS011;68963;52.138;5.446;2023-05-16T13:20:13;6.38;;;0.70;;
78561;SDS011;68963;52.138;5.446;2023-05-16T13:22:41;5.82;;;1.00;;
78561;SDS011;68963;52.138;5.446;2023-05-16T13:25:09;7.30;;;1.05;;
78561;SDS011;68963;52.138;5.446;2023-05-16T13:27:36;6.72;;;0.95;;
78561;SDS011;68963;52.138;5.446;2023-05-16T13:30:03;5.65;;;0.90;;
78561;SDS011;68963;52.138;5.446;2023-05-16T13:32:30;5.32;;;0.95;;
78561;SDS011;68963;52.138;5.446;2023-05-16T13:34:56;6.90;;;1.05;;
78561;SDS011;68963;52.138;5.446;2023-05-16T13:37:23;6.68;;;0.90;;
78561;SDS011;68963;52.138;5.446;2023-05-16T13:39:50;5.22;;;1.00;;
78561;SDS011;68963;52.138;5.446;2023-05-16T13:42:17;7.00;;;0.90;;
78561;SDS011;68963;52.138;5.446;2023-05-16T13:44:44;4.43;;;0.70;;
78561;SDS011;68963;52.138;5.446;2023-05-16T13:47:10;5.40;;;0.90;;
78561;SDS011;68963;52.138;5.446;2023-05-16T13:49:37;4.18;;;0.60;;
78561;SDS011;68963;52.138;5.446;2023-05-16T13:52:07;6.13;;;0.85;;
78561;SDS011;68963;52.138;5.446;2023-05-16T13:54:33;6.93;;;1.30;;
78561;SDS011;68963;52.138;5.446;2023-05-16T13:57:00;6.85;;;0.90;;
78561;SDS011;68963;52.138;5.446;2023-05-16T13:59:28;6.93;;;0.90;;
78561;SDS011;68963;52.138;5.446;2023-05-16T14:02:15;4.93;;;0.80;;
78561;SDS011;68963;52.138;5.446;2023-05-16T14:04:42;5.70;;;1.00;;
78561;SDS011;68963;52.138;5.446;2023-05-16T14:07:08;7.55;;;0.80;;
78561;SDS011;68963;52.138;5.446;2023-05-16T14:09:35;4.25;;;0.70;;
78561;SDS011;68963;52.138;5.446;2023-05-16T14:12:05;4.78;;;0.90;;
78561;SDS011;68963;52.138;5.446;2023-05-16T14:14:33;5.70;;;0.85;;
78561;SDS011;68963;52.138;5.446;2023-05-16T14:17:00;5.40;;;0.70;;
78561;SDS011;68963;52.138;5.446;2023-05-16T14:19:27;5.10;;;0.70;;
78561;SDS011;68963;52.138;5.446;2023-05-16T14:21:54;6.10;;;0.90;;
78561;SDS011;68963;52.138;5.446;2023-05-16T14:24:21;4.75;;;0.60;;
78561;SDS011;68963;52.138;5.446;2023-05-16T14:26:48;6.30;;;0.73;;
78561;SDS011;68963;52.138;5.446;2023-05-16T14:29:22;4.00;;;0.70;;
78561;SDS011;68963;52.138;5.446;2023-05-16T14:31:50;5.88;;;0.88;;
78561;SDS011;68963;52.138;5.446;2023-05-16T14:34:17;7.70;;;1.50;;
78561;SDS011;68963;52.138;5.446;2023-05-16T14:36:44;4.68;;;0.75;;
78561;SDS011;68963;52.138;5.446;2023-05-16T14:39:13;5.40;;;0.80;;
78561;SDS011;68963;52.138;5.446;2023-05-16T14:41:40;5.13;;;0.90;;
78561;SDS011;68963;52.138;5.446;2023-05-16T14:44:07;5.88;;;0.90;;
78561;SDS011;68963;52.138;5.446;2023-05-16T14:46:33;5.75;;;0.90;;
78561;SDS011;68963;52.138;5.446;2023-05-16T14:49:01;3.85;;;0.57;;
78561;SDS011;68963;52.138;5.446;2023-05-16T14:51:27;5.82;;;1.02;;
78561;SDS011;68963;52.138;5.446;2023-05-16T14:53:54;4.93;;;0.73;;
78561;SDS011;68963;52.138;5.446;2023-05-16T14:56:21;5.63;;;0.98;;
78561;SDS011;68963;52.138;5.446;2023-05-16T14:58:47;4.35;;;0.70;;
78561;SDS011;68963;52.138;5.446;2023-05-16T15:01:14;7.30;;;0.80;;
78561;SDS011;68963;52.138;5.446;2023-05-16T15:03:41;5.32;;;1.30;;
78561;SDS011;68963;52.138;5.446;2023-05-16T15:06:20;5.43;;;0.82;;
78561;SDS011;68963;52.138;5.446;2023-05-16T15:08:46;5.40;;;0.73;;
78561;SDS011;68963;52.138;5.446;2023-05-16T15:11:13;3.70;;;0.70;;
78561;SDS011;68963;52.138;5.446;2023-05-16T15:13:40;4.03;;;0.90;;
78561;SDS011;68963;52.138;5.446;2023-05-16T15:16:06;6.20;;;0.80;;
78561;SDS011;68963;52.138;5.446;2023-05-16T15:18:33;4.93;;;0.77;;
78561;SDS011;68963;52.138;5.446;2023-05-16T15:21:00;4.95;;;0.80;;
78561;SDS011;68963;52.138;5.446;2023-05-16T15:23:26;4.47;;;0.60;;
78561;SDS011;68963;52.138;5.446;2023-05-16T15:25:53;5.28;;;0.70;;